createdAt,value
2024-01-15T00:00:06.317Z,10.57
2024-01-15T00:02:35.208Z,10.03
2024-01-15T00:05:03.919Z,11.27
2024-01-15T00:07:32.712Z,7.00
2024-01-15T00:10:01.329Z,7.67
2024-01-15T00:12:29.887Z,10.27
2024-01-15T00:14:58.440Z,10.97
2024-01-15T00:17:28.468Z,11.43
2024-01-15T00:19:57.129Z,9.83
2024-01-15T00:22:27.837Z,8.20
2024-01-15T00:24:56.564Z,6.30
2024-01-15T00:27:25.046Z,9.60
2024-01-15T00:29:53.695Z,9.23
2024-01-15T00:32:22.052Z,11.13
2024-01-15T00:34:52.393Z,8.50
2024-01-15T00:37:21.089Z,10.23
2024-01-15T00:39:49.872Z,6.80
2024-01-15T00:42:18.864Z,9.17
2024-01-15T00:44:47.719Z,6.50
2024-01-15T00:47:16.744Z,9.03
2024-01-15T00:49:45.116Z,9.20
2024-01-15T00:52:15.032Z,13.43
2024-01-15T00:54:45.804Z,7.13
2024-01-15T00:57:14.477Z,10.20
2024-01-15T00:59:43.514Z,9.07
2024-01-15T01:02:12.115Z,13.23
2024-01-15T01:04:40.945Z,12.03
2024-01-15T01:07:09.809Z,9.40
2024-01-15T01:09:39.881Z,9.53
2024-01-15T01:12:09.055Z,7.10
2024-01-15T01:14:37.523Z,7.47
2024-01-15T01:17:06.387Z,10.90
2024-01-15T01:19:35.269Z,9.90
2024-01-15T01:22:03.980Z,13.40
2024-01-15T01:24:32.999Z,11.17
2024-01-15T01:27:03.404Z,9.60
2024-01-15T01:29:31.909Z,10.03
2024-01-15T01:32:01.010Z,11.77
2024-01-15T01:34:32.881Z,11.67
2024-01-15T01:37:06.490Z,10.30
2024-01-15T01:39:34.899Z,15.50
2024-01-15T01:42:05.017Z,10.47
2024-01-15T01:44:33.473Z,15.43
2024-01-15T01:47:03.033Z,11.13
2024-01-15T01:49:32.179Z,16.03
2024-01-15T01:52:02.832Z,13.73
2024-01-15T01:54:34.231Z,15.13
2024-01-15T01:57:07.302Z,12.73
2024-01-15T01:59:37.073Z,14.03
2024-01-15T02:02:06.277Z,18.17
2024-01-15T02:04:53.381Z,17.90
2024-01-15T02:07:22.745Z,13.80
2024-01-15T02:09:52.654Z,15.57
2024-01-15T02:12:22.911Z,14.63
2024-01-15T02:14:51.929Z,16.73
2024-01-15T02:17:20.853Z,15.17
2024-01-15T02:19:51.574Z,14.17
2024-01-15T02:22:20.360Z,19.40
2024-01-15T02:24:50.483Z,12.40
2024-01-15T02:27:20.629Z,15.60
2024-01-15T02:29:49.457Z,14.90
2024-01-15T02:32:18.031Z,16.03
2024-01-15T02:34:47.152Z,17.37
2024-01-15T02:37:15.811Z,19.37
2024-01-15T02:39:44.459Z,21.10
2024-01-15T02:42:14.813Z,19.90
2024-01-15T02:44:43.299Z,19.60
2024-01-15T02:47:12.314Z,18.53
2024-01-15T02:49:40.852Z,21.93
2024-01-15T02:52:09.634Z,21.77
2024-01-15T02:54:38.397Z,22.03
2024-01-15T02:57:07.237Z,22.93
2024-01-15T02:59:37.505Z,17.23
2024-01-15T03:02:06.700Z,21.37
2024-01-15T03:04:35.730Z,23.03
2024-01-15T03:07:04.418Z,17.80
2024-01-15T03:09:33.242Z,17.77
2024-01-15T03:12:01.997Z,22.80
2024-01-15T03:14:30.843Z,21.87
2024-01-15T03:17:02.110Z,21.90
2024-01-15T03:19:31.975Z,19.93
2024-01-15T03:22:01.940Z,21.27
2024-01-15T03:24:30.414Z,23.57
2024-01-15T03:26:59.271Z,20.07
2024-01-15T03:29:28.699Z,25.27
2024-01-15T03:32:00.443Z,19.87
2024-01-15T03:34:30.458Z,19.47
2024-01-15T03:37:00.092Z,19.03
2024-01-15T03:39:29.186Z,21.60
2024-01-15T03:41:58.998Z,27.23
2024-01-15T03:44:27.830Z,22.20
2024-01-15T03:46:56.638Z,22.57
2024-01-15T03:49:26.792Z,20.33
2024-01-15T03:51:57.326Z,23.33
2024-01-15T03:54:26.517Z,20.13
2024-01-15T03:56:55.823Z,26.27
2024-01-15T03:59:25.407Z,20.40
2024-01-15T04:01:54.183Z,18.20
2024-01-15T04:04:22.859Z,21.77
2024-01-15T04:06:51.444Z,19.87
2024-01-15T04:09:21.621Z,21.93
2024-01-15T04:11:50.082Z,21.30
2024-01-15T04:14:18.974Z,27.30
2024-01-15T04:16:47.762Z,20.67
2024-01-15T04:19:16.189Z,24.30
2024-01-15T04:21:45.215Z,21.80
2024-01-15T04:24:13.762Z,23.73
2024-01-15T04:26:46.079Z,21.60
2024-01-15T04:29:14.533Z,23.47
2024-01-15T04:31:43.393Z,27.27
2024-01-15T04:34:11.927Z,22.00
2024-01-15T04:36:42.532Z,20.00
2024-01-15T04:39:13.067Z,17.47
2024-01-15T04:41:41.859Z,18.57
2024-01-15T04:44:11.796Z,17.20
2024-01-15T04:46:40.786Z,15.90
2024-01-15T04:49:10.032Z,18.30
2024-01-15T04:51:39.152Z,19.10
2024-01-15T04:54:07.776Z,19.53
2024-01-15T04:56:36.672Z,22.83
2024-01-15T04:59:05.170Z,20.63
2024-01-15T05:01:35.752Z,23.13
2024-01-15T05:04:04.536Z,20.90
2024-01-15T05:06:33.378Z,18.53
2024-01-15T05:09:01.976Z,18.43
2024-01-15T05:11:30.502Z,21.80
2024-01-15T05:13:59.368Z,21.50
2024-01-15T05:16:30.475Z,21.90
2024-01-15T05:19:01.083Z,17.63
2024-01-15T05:21:29.968Z,17.27
2024-01-15T05:23:58.906Z,17.37
2024-01-15T05:26:27.404Z,24.83
2024-01-15T05:28:56.302Z,22.70
2024-01-15T05:31:24.809Z,20.90
2024-01-15T05:33:53.444Z,24.17
2024-01-15T05:36:23.238Z,19.07
2024-01-15T05:38:52.300Z,21.67
2024-01-15T05:41:21.578Z,19.00
2024-01-15T05:43:50.458Z,17.27
2024-01-15T05:46:18.983Z,22.33
2024-01-15T05:48:47.689Z,20.17
2024-01-15T05:51:16.177Z,19.77
2024-01-15T05:53:47.016Z,19.17
2024-01-15T05:56:16.279Z,17.17
2024-01-15T05:58:44.595Z,22.70
2024-01-15T06:01:13.327Z,17.33
2024-01-15T06:03:42.095Z,18.50
2024-01-15T06:06:11.351Z,19.20
2024-01-15T06:08:40.387Z,18.20
2024-01-15T06:11:10.469Z,18.50
2024-01-15T06:13:39.226Z,16.80
2024-01-15T06:16:15.860Z,19.93
2024-01-15T06:18:44.662Z,21.27
2024-01-15T06:21:14.354Z,26.80
2024-01-15T06:23:43.079Z,23.03
2024-01-15T06:26:14.317Z,17.10
2024-01-15T06:28:45.048Z,19.00
2024-01-15T06:31:13.941Z,19.43
2024-01-15T06:33:43.065Z,19.10
2024-01-15T06:36:12.347Z,17.37
2024-01-15T06:38:43.151Z,15.97
2024-01-15T06:41:13.472Z,13.47
2024-01-15T06:43:42.227Z,16.70
2024-01-15T06:46:12.294Z,16.93
2024-01-15T06:48:41.227Z,19.53
2024-01-15T06:51:09.775Z,19.53
2024-01-15T06:53:41.141Z,21.03
2024-01-15T06:56:09.755Z,19.00
2024-01-15T06:58:39.651Z,19.90
2024-01-15T07:01:09.446Z,21.20
2024-01-15T07:03:38.303Z,18.10
2024-01-15T07:06:07.899Z,14.83
2024-01-15T07:08:36.287Z,20.80
2024-01-15T07:11:06.380Z,17.80
2024-01-15T07:13:35.804Z,19.13
2024-01-15T07:16:06.482Z,24.63
2024-01-15T07:18:35.677Z,21.97
2024-01-15T07:21:04.096Z,18.30
2024-01-15T07:23:33.788Z,22.50
2024-01-15T07:26:02.379Z,26.60
2024-01-15T07:28:32.162Z,23.90
2024-01-15T07:31:00.977Z,20.90
2024-01-15T07:33:30.996Z,25.57
2024-01-15T07:36:03.619Z,22.30
2024-01-15T07:38:32.457Z,18.17
2024-01-15T07:41:01.244Z,21.13
2024-01-15T07:43:30.500Z,24.83
2024-01-15T07:46:00.129Z,23.13
2024-01-15T07:48:33.525Z,26.00
2024-01-15T07:51:02.114Z,17.30
2024-01-15T07:53:30.807Z,21.50
2024-01-15T07:55:59.843Z,20.00
2024-01-15T07:58:30.746Z,19.23
2024-01-15T08:00:59.577Z,22.03
2024-01-15T08:03:28.740Z,21.33
2024-01-15T08:06:02.013Z,18.20
2024-01-15T08:08:31.597Z,17.83
2024-01-15T08:11:00.545Z,14.80
2024-01-15T08:13:29.586Z,16.90
2024-01-15T08:15:58.215Z,15.03
2024-01-15T08:18:29.250Z,14.70
2024-01-15T08:20:59.485Z,19.57
2024-01-15T08:23:29.420Z,18.13
2024-01-15T08:25:58.064Z,16.20
2024-01-15T08:28:26.790Z,16.50
2024-01-15T08:30:55.763Z,21.23
2024-01-15T08:33:24.768Z,15.73
2024-01-15T08:35:53.376Z,12.10
2024-01-15T08:38:24.237Z,16.53
2024-01-15T08:40:54.876Z,14.53
2024-01-15T08:43:23.756Z,18.63
2024-01-15T08:45:52.584Z,16.43
2024-01-15T08:48:21.645Z,15.77
2024-01-15T08:50:51.830Z,15.00
2024-01-15T08:53:23.152Z,15.23
2024-01-15T08:55:51.841Z,13.70
2024-01-15T08:58:20.320Z,9.87
2024-01-15T09:00:48.977Z,12.20
2024-01-15T09:03:17.733Z,12.80
2024-01-15T09:05:46.660Z,11.17
2024-01-15T09:08:19.201Z,25.13
2024-01-15T09:10:49.773Z,17.10
2024-01-15T09:13:18.774Z,8.83
2024-01-15T09:15:47.546Z,10.07
2024-01-15T09:18:16.348Z,9.27
2024-01-15T09:20:44.866Z,8.83
2024-01-15T09:23:13.619Z,9.53
2024-01-15T09:25:42.352Z,9.73
2024-01-15T09:28:12.479Z,9.67
2024-01-15T09:30:40.893Z,9.33
2024-01-15T09:33:09.589Z,10.27
2024-01-15T09:35:38.214Z,15.33
2024-01-15T09:38:07.143Z,11.43
2024-01-15T09:40:41.530Z,11.43
2024-01-15T09:43:12.009Z,7.37
2024-01-15T09:45:41.125Z,8.33
2024-01-15T09:48:10.368Z,10.20
2024-01-15T09:50:39.526Z,11.13
2024-01-15T09:53:08.821Z,8.07
2024-01-15T09:55:39.061Z,8.27
2024-01-15T09:58:07.903Z,8.43
2024-01-15T10:00:40.533Z,9.90
2024-01-15T10:03:09.486Z,13.50
2024-01-15T10:05:38.084Z,10.37
2024-01-15T10:08:07.848Z,12.80
2024-01-15T10:10:39.027Z,8.80
2024-01-15T10:13:08.490Z,7.07
2024-01-15T10:15:40.674Z,8.63
2024-01-15T10:18:09.457Z,8.20
2024-01-15T10:20:37.892Z,6.30
2024-01-15T10:23:06.875Z,7.93
2024-01-15T10:25:35.479Z,7.60
2024-01-15T10:28:04.928Z,5.43
2024-01-15T10:30:34.948Z,8.03
2024-01-15T10:33:07.154Z,8.00
2024-01-15T10:35:37.009Z,6.70
2024-01-15T10:38:06.672Z,6.33
2024-01-15T10:40:35.444Z,8.90
2024-01-15T10:43:06.860Z,10.80
2024-01-15T10:45:35.153Z,10.30
2024-01-15T10:48:06.352Z,8.97
2024-01-15T10:50:35.108Z,6.00
2024-01-15T10:53:07.664Z,6.03
2024-01-15T10:55:36.386Z,8.37
2024-01-15T10:58:06.114Z,6.73
2024-01-15T11:00:35.064Z,10.10
2024-01-15T11:03:07.228Z,6.17
2024-01-15T11:05:37.225Z,12.07
2024-01-15T11:08:08.299Z,7.23
2024-01-15T11:10:44.044Z,9.87
2024-01-15T11:13:13.290Z,6.00
2024-01-15T11:15:58.280Z,8.97
2024-01-15T11:18:29.628Z,5.33
2024-01-15T11:21:27.630Z,7.00
2024-01-15T11:23:59.373Z,7.33
2024-01-15T11:26:38.861Z,8.33
2024-01-15T11:29:08.958Z,5.07
2024-01-15T11:32:00.577Z,6.10
2024-01-15T11:35:04.009Z,6.47
2024-01-15T11:37:59.608Z,5.20
2024-01-15T11:40:49.841Z,7.83
2024-01-15T11:43:21.917Z,8.40
2024-01-15T11:45:55.254Z,9.03
2024-01-15T11:48:25.920Z,7.80
2024-01-15T11:50:56.245Z,7.90
2024-01-15T11:53:35.603Z,10.00
2024-01-15T11:56:05.293Z,12.80
2024-01-15T11:58:33.720Z,19.07
2024-01-15T12:01:02.402Z,7.57
2024-01-15T12:03:36.044Z,10.00
2024-01-15T12:06:08.690Z,10.80
2024-01-15T12:08:37.737Z,9.67
2024-01-15T12:11:09.641Z,5.87
2024-01-15T12:13:38.279Z,14.77
2024-01-15T12:16:07.114Z,7.13
2024-01-15T12:18:36.331Z,11.40
2024-01-15T12:21:06.977Z,10.10
2024-01-15T12:23:36.411Z,6.60
2024-01-15T12:26:05.563Z,4.00
2024-01-15T12:28:34.111Z,5.30
2024-01-15T12:31:06.866Z,4.80
2024-01-15T12:33:36.339Z,7.50
2024-01-15T12:36:07.128Z,4.07
2024-01-15T12:38:36.012Z,6.37
2024-01-15T12:41:04.513Z,4.20
2024-01-15T12:43:33.478Z,4.63
2024-01-15T12:46:02.425Z,5.40
2024-01-15T12:48:32.212Z,7.20
2024-01-15T12:51:00.615Z,5.40
2024-01-15T12:53:30.855Z,7.27
2024-01-15T12:55:59.617Z,3.77
2024-01-15T12:58:28.339Z,6.83
2024-01-15T13:00:57.258Z,5.60
2024-01-15T13:03:26.285Z,6.57
2024-01-15T13:05:54.919Z,5.33
2024-01-15T13:08:26.651Z,5.47
2024-01-15T13:10:58.213Z,7.70
2024-01-15T13:13:27.562Z,6.53
2024-01-15T13:15:56.559Z,5.43
2024-01-15T13:18:26.540Z,6.87
2024-01-15T13:20:55.349Z,5.23
2024-01-15T13:23:24.725Z,5.40
2024-01-15T13:25:53.969Z,7.23
2024-01-15T13:28:25.098Z,4.57
2024-01-15T13:30:55.296Z,3.77
2024-01-15T13:33:24.577Z,5.73
2024-01-15T13:35:55.651Z,4.90
2024-01-15T13:38:25.669Z,4.40
2024-01-15T13:40:54.729Z,4.33
2024-01-15T13:43:24.819Z,5.33
2024-01-15T13:45:55.367Z,4.80
2024-01-15T13:48:23.857Z,7.27
2024-01-15T13:50:52.728Z,7.60
2024-01-15T13:53:21.439Z,5.77
2024-01-15T13:55:50.276Z,5.77
2024-01-15T13:58:19.720Z,4.53
2024-01-15T14:00:50.032Z,3.80
2024-01-15T14:03:18.605Z,5.90
2024-01-15T14:05:47.317Z,5.23
2024-01-15T14:08:16.937Z,7.43
2024-01-15T14:10:46.677Z,5.43
2024-01-15T14:13:15.653Z,8.40
2024-01-15T14:15:44.537Z,7.37
2024-01-15T14:18:14.723Z,6.50
2024-01-15T14:20:43.968Z,15.60
2024-01-15T14:23:13.008Z,14.00
2024-01-15T14:25:42.100Z,6.30
2024-01-15T14:28:10.472Z,5.23
2024-01-15T14:30:39.119Z,5.43
2024-01-15T14:33:08.920Z,16.47
2024-01-15T14:35:40.384Z,5.07
2024-01-15T14:38:08.926Z,5.50
2024-01-15T14:40:38.617Z,6.00
2024-01-15T14:43:07.494Z,4.47
2024-01-15T14:45:35.837Z,3.90
2024-01-15T14:48:04.412Z,7.47
2024-01-15T14:50:33.125Z,8.47
2024-01-15T14:53:03.626Z,3.60
2024-01-15T14:55:33.628Z,4.60
2024-01-15T14:58:02.131Z,5.50
2024-01-15T15:00:30.690Z,4.83
2024-01-15T15:02:59.159Z,3.83
2024-01-15T15:05:30.769Z,7.03
2024-01-15T15:07:59.418Z,3.93
2024-01-15T15:10:29.447Z,4.77
2024-01-15T15:12:58.248Z,4.20
2024-01-15T15:15:26.947Z,4.00
2024-01-15T15:17:56.510Z,4.33
2024-01-15T15:20:25.293Z,6.17
2024-01-15T15:22:57.123Z,4.23
2024-01-15T15:25:25.820Z,4.87
2024-01-15T15:27:55.603Z,4.27
2024-01-15T15:30:24.264Z,4.73
2024-01-15T15:32:54.948Z,3.00
2024-01-15T15:35:25.234Z,5.40
2024-01-15T15:37:54.067Z,7.10
2024-01-15T15:40:23.952Z,5.40
2024-01-15T15:42:52.632Z,2.50
2024-01-15T15:45:22.784Z,4.97
2024-01-15T15:47:51.475Z,3.43
2024-01-15T15:50:20.119Z,2.50
2024-01-15T15:52:48.453Z,5.13
2024-01-15T15:55:16.887Z,3.87
2024-01-15T15:57:45.313Z,5.03
2024-01-15T16:00:15.027Z,4.30
2024-01-15T16:02:45.626Z,3.03
2024-01-15T16:05:14.520Z,3.80
2024-01-15T16:07:43.830Z,4.17
2024-01-15T16:10:12.483Z,4.00
2024-01-15T16:12:41.263Z,4.27
2024-01-15T16:15:20.018Z,2.40
2024-01-15T16:23:17.228Z,2.73
2024-01-15T16:23:31.639Z,4.13
2024-01-15T16:24:04.665Z,3.17
2024-01-15T16:26:16.425Z,2.67
2024-01-15T16:28:45.896Z,3.90
2024-01-15T16:31:14.263Z,3.77
2024-01-15T16:33:47.904Z,3.80
2024-01-15T16:36:21.932Z,2.93
2024-01-15T16:38:54.809Z,4.60
2024-01-15T16:41:23.444Z,4.63
2024-01-15T16:43:52.793Z,4.50
2024-01-15T16:46:21.438Z,2.60
2024-01-15T16:48:51.433Z,3.40
2024-01-15T16:51:20.616Z,5.03
2024-01-15T16:53:49.263Z,3.70
2024-01-15T16:56:18.958Z,4.03
2024-01-15T16:58:48.465Z,4.70
2024-01-15T17:01:17.047Z,4.60
2024-01-15T17:03:45.819Z,3.10
2024-01-15T17:06:17.182Z,3.10
2024-01-15T17:08:45.756Z,3.10
2024-01-15T17:11:14.613Z,2.77
2024-01-15T17:13:43.222Z,3.37
2024-01-15T17:16:12.076Z,6.23
2024-01-15T17:18:42.488Z,3.67
2024-01-15T17:21:14.426Z,2.83
2024-01-15T17:23:44.259Z,4.47
2024-01-15T17:26:13.415Z,2.70
2024-01-15T17:28:41.926Z,2.97
2024-01-15T17:31:11.393Z,3.10
2024-01-15T17:33:39.897Z,6.57
2024-01-15T17:36:08.443Z,3.17
2024-01-15T17:38:36.963Z,2.90
2024-01-15T17:41:07.213Z,7.30
2024-01-15T17:43:37.635Z,7.00
2024-01-15T17:46:06.267Z,3.37
2024-01-15T17:48:34.759Z,3.90
2024-01-15T17:51:04.494Z,3.53
2024-01-15T17:53:34.094Z,6.27
2024-01-15T17:56:02.804Z,3.63
2024-01-15T17:58:33.317Z,7.30
2024-01-15T18:01:03.463Z,9.90
2024-01-15T18:03:32.679Z,4.70
2024-01-15T18:06:01.269Z,2.53
2024-01-15T18:08:33.050Z,3.30
2024-01-15T18:11:01.952Z,4.33
2024-01-15T18:13:30.614Z,2.20
2024-01-15T18:16:00.717Z,2.67
2024-01-15T18:18:29.588Z,1.67
2024-01-15T18:20:59.038Z,2.40
2024-01-15T18:23:27.716Z,1.60
2024-01-15T18:25:56.508Z,2.13
2024-01-15T18:28:25.521Z,1.90
2024-01-15T18:30:53.919Z,2.77
2024-01-15T18:33:24.665Z,1.63
2024-01-15T18:35:53.712Z,5.00
2024-01-15T18:38:23.062Z,1.83
2024-01-15T18:40:52.261Z,1.53
2024-01-15T18:43:21.491Z,1.60
2024-01-15T18:45:50.750Z,2.23
2024-01-15T18:48:19.582Z,1.20
2024-01-15T18:50:49.383Z,1.53
2024-01-15T18:53:17.815Z,1.47
2024-01-15T18:55:46.720Z,3.30
2024-01-15T18:58:15.830Z,4.47
2024-01-15T19:00:44.243Z,32.70
2024-01-15T19:03:13.319Z,10.80
2024-01-15T19:05:41.916Z,7.37
2024-01-15T19:08:15.212Z,1.53
2024-01-15T19:10:46.391Z,23.20
2024-01-15T19:13:15.668Z,4.43
2024-01-15T19:15:44.210Z,1.70
2024-01-15T19:18:13.208Z,1.53
2024-01-15T19:20:41.928Z,1.07
2024-01-15T19:23:12.770Z,1.20
2024-01-15T19:25:41.652Z,2.30
2024-01-15T19:28:10.218Z,1.60
2024-01-15T19:30:39.593Z,1.77
2024-01-15T19:33:08.988Z,1.37
2024-01-15T19:35:40.477Z,1.10
2024-01-15T19:38:10.549Z,1.10
2024-01-15T19:40:40.440Z,1.40
2024-01-15T19:43:09.042Z,1.47
2024-01-15T19:45:37.674Z,2.40
2024-01-15T19:48:07.692Z,2.10
2024-01-15T19:50:36.343Z,2.10
2024-01-15T19:53:04.784Z,1.80
2024-01-15T19:55:33.423Z,4.47
2024-01-15T19:58:04.021Z,2.40
2024-01-15T20:00:32.753Z,7.33
2024-01-15T20:03:01.674Z,2.70
2024-01-15T20:05:31.590Z,5.73
2024-01-15T20:08:00.330Z,3.40
2024-01-15T20:10:28.821Z,2.77
2024-01-15T20:12:58.445Z,1.73
2024-01-15T20:15:29.947Z,2.83
2024-01-15T20:17:58.734Z,3.67
2024-01-15T20:20:27.531Z,4.17
2024-01-15T20:22:57.520Z,5.90
2024-01-15T20:25:25.998Z,2.13
2024-01-15T20:27:54.703Z,2.50
2024-01-15T20:30:23.813Z,2.67
2024-01-15T20:32:54.127Z,1.90
2024-01-15T20:35:23.650Z,1.93
2024-01-15T20:37:56.812Z,2.30
2024-01-15T20:40:25.740Z,2.37
2024-01-15T20:42:55.186Z,2.67
2024-01-15T20:45:25.464Z,1.77
2024-01-15T20:47:57.182Z,3.47
2024-01-15T20:50:25.952Z,2.63
2024-01-15T20:52:55.072Z,2.90
2024-01-15T20:55:23.846Z,3.80
2024-01-15T20:57:53.010Z,4.13
2024-01-15T21:00:22.565Z,2.27
2024-01-15T21:02:51.612Z,3.53
2024-01-15T21:05:21.738Z,3.23
2024-01-15T21:07:52.977Z,2.60
2024-01-15T21:10:22.629Z,2.63
2024-01-15T21:12:51.016Z,3.57
2024-01-15T21:15:19.427Z,5.27
2024-01-15T21:17:50.571Z,3.40
2024-01-15T21:20:19.428Z,4.00
2024-01-15T21:22:49.728Z,2.27
2024-01-15T21:25:18.564Z,2.57
2024-01-15T21:27:47.541Z,1.57
2024-01-15T21:30:17.105Z,3.97
2024-01-15T21:32:45.676Z,2.23
2024-01-15T21:35:14.507Z,4.43
2024-01-15T21:37:44.429Z,2.60
2024-01-15T21:40:15.676Z,2.87
2024-01-15T21:42:45.037Z,2.00
2024-01-15T21:45:13.539Z,2.40
2024-01-15T21:47:42.515Z,2.60
2024-01-15T21:50:11.659Z,5.20
2024-01-15T21:52:40.235Z,2.73
2024-01-15T21:55:11.057Z,2.07
2024-01-15T21:57:41.477Z,3.13
2024-01-15T22:00:10.984Z,2.40
2024-01-15T22:02:42.108Z,2.97
2024-01-15T22:05:12.247Z,4.90
2024-01-15T22:07:43.122Z,3.20
2024-01-15T22:10:12.627Z,2.17
2024-01-15T22:12:43.218Z,2.30
2024-01-15T22:15:14.296Z,3.20
2024-01-15T22:17:43.080Z,2.10
2024-01-15T22:20:12.358Z,3.33
2024-01-15T22:22:41.216Z,5.30
2024-01-15T22:25:10.710Z,3.03
2024-01-15T22:27:39.019Z,3.37
2024-01-15T22:30:11.866Z,2.83
2024-01-15T22:32:40.685Z,4.00
2024-01-15T22:35:11.891Z,2.50
2024-01-15T22:37:41.905Z,3.80
2024-01-15T22:40:11.388Z,2.27
2024-01-15T22:42:39.905Z,2.90
2024-01-15T22:45:11.556Z,3.20
2024-01-15T22:47:41.816Z,4.20
2024-01-15T22:50:11.238Z,3.93
2024-01-15T22:52:40.356Z,2.70
2024-01-15T22:55:09.902Z,5.30
2024-01-15T22:57:38.588Z,4.03
2024-01-15T23:00:14.326Z,6.50
2024-01-15T23:02:42.758Z,3.70
2024-01-15T23:05:11.909Z,3.03
2024-01-15T23:07:43.356Z,4.50
2024-01-15T23:10:11.986Z,3.40
2024-01-15T23:12:40.832Z,3.53
2024-01-15T23:15:11.498Z,3.57
2024-01-15T23:17:40.297Z,3.97
2024-01-15T23:20:15.182Z,6.60
2024-01-15T23:22:43.797Z,2.93
2024-01-15T23:25:12.686Z,3.07
2024-01-15T23:27:41.777Z,3.37
2024-01-15T23:30:15.014Z,5.93
2024-01-15T23:32:44.229Z,5.50
2024-01-15T23:35:13.002Z,3.97
2024-01-15T23:37:42.323Z,3.50
2024-01-15T23:40:11.784Z,3.90
2024-01-15T23:42:43.252Z,4.83
2024-01-15T23:45:13.122Z,3.33
2024-01-15T23:47:41.543Z,3.00
2024-01-15T23:50:10.880Z,4.47
2024-01-15T23:52:39.214Z,3.33
2024-01-15T23:55:08.645Z,7.60
2024-01-15T23:57:37.199Z,5.50
